createdAt,value
2023-05-15T00:02:22.478Z,9.60
2023-05-15T00:04:49.332Z,9.60
2023-05-15T00:07:16.452Z,9.60
2023-05-15T00:09:43.202Z,9.60
2023-05-15T00:12:10.021Z,9.60
2023-05-15T00:14:36.771Z,9.60
2023-05-15T00:17:03.538Z,9.60
2023-05-15T00:19:30.333Z,9.60
2023-05-15T00:21:57.123Z,9.60
2023-05-15T00:24:24.011Z,9.60
2023-05-15T00:26:50.947Z,9.60
2023-05-15T00:29:17.731Z,9.60
2023-05-15T00:31:44.598Z,9.60
2023-05-15T00:34:11.401Z,9.60
2023-05-15T00:36:38.172Z,9.60
2023-05-15T00:39:04.910Z,9.60
2023-05-15T00:41:33.465Z,9.60
2023-05-15T00:44:02.198Z,9.60
2023-05-15T00:46:32.016Z,9.60
2023-05-15T00:48:59.653Z,9.60
2023-05-15T00:51:27.128Z,9.60
2023-05-15T00:53:54.959Z,9.60
2023-05-15T00:56:22.209Z,9.60
2023-05-15T00:58:50.249Z,9.60
2023-05-15T01:01:17.626Z,9.50
2023-05-15T01:03:44.659Z,9.50
2023-05-15T01:06:11.941Z,9.50
2023-05-15T01:08:49.596Z,9.50
2023-05-15T01:11:18.000Z,9.60
2023-05-15T01:13:45.064Z,9.50
2023-05-15T01:16:11.900Z,9.50
2023-05-15T01:18:38.905Z,9.50
2023-05-15T01:21:32.263Z,9.40
2023-05-15T01:24:20.567Z,9.40
2023-05-15T01:27:11.792Z,9.40
2023-05-15T01:30:08.192Z,9.40
2023-05-15T01:32:43.566Z,9.40
2023-05-15T01:35:31.612Z,9.40
2023-05-15T01:38:25.134Z,9.50
2023-05-15T01:41:01.939Z,9.40
2023-05-15T01:43:31.818Z,9.40
2023-05-15T01:45:59.353Z,9.50
2023-05-15T01:48:28.361Z,9.40
2023-05-15T01:50:58.242Z,9.50
2023-05-15T01:53:26.792Z,9.40
2023-05-15T01:55:54.558Z,9.40
2023-05-15T01:58:21.883Z,9.40
2023-05-15T02:00:49.775Z,9.40
2023-05-15T02:03:16.642Z,9.40
2023-05-15T02:05:43.474Z,9.40
2023-05-15T02:08:12.204Z,9.40
2023-05-15T02:10:39.914Z,9.40
2023-05-15T02:13:09.173Z,9.40
2023-05-15T02:15:36.688Z,9.40
2023-05-15T02:18:03.700Z,9.40
2023-05-15T02:20:30.616Z,9.40
2023-05-15T02:22:57.357Z,9.40
2023-05-15T02:25:43.028Z,9.40
2023-05-15T02:28:17.587Z,9.40
2023-05-15T02:30:55.287Z,9.30
2023-05-15T02:34:04.840Z,9.30
2023-05-15T02:36:36.304Z,9.30
2023-05-15T02:39:03.375Z,9.30
2023-05-15T02:41:33.308Z,9.20
2023-05-15T02:44:01.277Z,9.20
2023-05-15T02:46:28.400Z,9.30
2023-05-15T02:48:55.724Z,9.20
2023-05-15T02:51:22.586Z,9.20
2023-05-15T02:53:49.762Z,9.20
2023-05-15T02:56:16.491Z,9.20
2023-05-15T02:58:43.340Z,9.20
2023-05-15T03:01:10.105Z,9.10
2023-05-15T03:03:37.039Z,9.20
2023-05-15T03:06:04.054Z,9.20
2023-05-15T03:08:30.883Z,9.20
2023-05-15T03:13:24.504Z,9.10
2023-05-15T03:15:52.760Z,9.10
2023-05-15T03:18:19.658Z,9.10
2023-05-15T03:20:51.157Z,9.20
2023-05-15T03:23:17.999Z,9.20
2023-05-15T03:25:44.821Z,9.20
2023-05-15T03:28:11.754Z,9.20
2023-05-15T03:30:38.572Z,9.20
2023-05-15T03:33:05.348Z,9.20
2023-05-15T03:35:35.675Z,9.20
2023-05-15T03:38:02.701Z,9.20
2023-05-15T03:40:29.424Z,9.20
2023-05-15T03:42:56.334Z,9.10
2023-05-15T03:45:23.652Z,9.20
2023-05-15T03:50:25.043Z,9.10
2023-05-15T03:52:51.874Z,9.10
2023-05-15T03:55:18.731Z,9.20
2023-05-15T03:57:45.709Z,9.20
2023-05-15T04:00:13.042Z,9.20
2023-05-15T04:05:09.091Z,9.20
2023-05-15T04:07:37.131Z,9.20
2023-05-15T04:10:04.569Z,9.30
2023-05-15T04:12:35.753Z,9.20
2023-05-15T04:15:29.428Z,9.30
2023-05-15T04:17:56.470Z,9.30
2023-05-15T04:20:24.714Z,9.30
2023-05-15T04:22:52.074Z,9.30
2023-05-15T04:25:20.310Z,9.30
2023-05-15T04:27:47.294Z,9.40
2023-05-15T04:30:14.165Z,9.40
2023-05-15T04:32:41.185Z,9.40
2023-05-15T04:35:10.360Z,9.50
2023-05-15T04:37:41.866Z,9.50
2023-05-15T04:40:09.516Z,9.50
2023-05-15T04:42:39.186Z,9.60
2023-05-15T04:45:07.780Z,9.60
2023-05-15T04:47:34.939Z,9.60
2023-05-15T04:50:01.866Z,9.70
2023-05-15T04:52:28.827Z,9.70
2023-05-15T04:54:55.917Z,9.80
2023-05-15T04:57:23.094Z,9.80
2023-05-15T04:59:50.398Z,9.90
2023-05-15T05:02:22.149Z,10.00
2023-05-15T05:04:49.028Z,10.00
2023-05-15T05:07:15.872Z,10.10
2023-05-15T05:09:42.861Z,10.10
2023-05-15T05:12:09.979Z,10.20
2023-05-15T05:14:37.067Z,10.30
2023-05-15T05:17:04.073Z,10.40
2023-05-15T05:19:30.993Z,10.50
2023-05-15T05:22:01.315Z,10.60
2023-05-15T05:24:28.580Z,10.70
2023-05-15T05:26:58.122Z,10.80
2023-05-15T05:29:25.291Z,10.90
2023-05-15T05:31:52.698Z,11.10
2023-05-15T05:34:20.361Z,11.20
2023-05-15T05:36:47.283Z,11.40
2023-05-15T05:39:14.556Z,11.50
2023-05-15T05:41:41.422Z,11.50
2023-05-15T05:44:08.311Z,11.60
2023-05-15T05:46:35.235Z,11.60
2023-05-15T05:49:02.084Z,11.50
2023-05-15T05:51:38.865Z,11.60
2023-05-15T05:54:05.841Z,11.60
2023-05-15T05:56:32.758Z,11.60
2023-05-15T05:59:01.833Z,11.50
2023-05-15T06:01:28.936Z,11.50
2023-05-15T06:03:56.126Z,11.50
2023-05-15T06:06:23.065Z,11.50
2023-05-15T06:08:49.823Z,11.50
2023-05-15T06:11:16.655Z,11.50
2023-05-15T06:13:43.652Z,11.50
2023-05-15T06:16:10.614Z,11.60
2023-05-15T06:18:37.417Z,11.50
2023-05-15T06:21:04.262Z,11.50
2023-05-15T06:23:31.242Z,11.60
2023-05-15T06:25:58.364Z,11.60
2023-05-15T06:28:25.346Z,11.60
2023-05-15T06:30:52.939Z,11.70
2023-05-15T06:33:21.889Z,11.80
2023-05-15T06:35:48.811Z,11.90
2023-05-15T06:38:15.701Z,12.00
2023-05-15T06:40:42.651Z,12.00
2023-05-15T06:43:09.721Z,12.00
2023-05-15T06:45:36.462Z,12.00
2023-05-15T06:48:03.452Z,12.00
2023-05-15T06:50:30.283Z,12.10
2023-05-15T06:52:57.001Z,12.10
2023-05-15T06:55:23.906Z,12.10
2023-05-15T06:57:51.017Z,12.10
2023-05-15T07:00:18.082Z,12.20
2023-05-15T07:02:45.139Z,12.20
2023-05-15T07:05:15.116Z,12.20
2023-05-15T07:07:42.786Z,12.20
2023-05-15T07:10:10.133Z,12.30
2023-05-15T07:12:37.230Z,12.30
2023-05-15T07:15:05.002Z,12.30
2023-05-15T07:17:33.358Z,12.50
2023-05-15T07:20:00.375Z,12.70
2023-05-15T07:22:31.464Z,13.00
2023-05-15T07:24:59.520Z,13.10
2023-05-15T07:27:26.790Z,13.30
2023-05-15T07:29:54.015Z,13.30
2023-05-15T07:32:22.199Z,13.40
2023-05-15T07:34:49.009Z,13.50
2023-05-15T07:37:16.982Z,13.40
2023-05-15T07:39:46.129Z,13.30
2023-05-15T07:42:12.875Z,13.30
2023-05-15T07:44:39.689Z,13.30
2023-05-15T07:47:06.656Z,13.20
2023-05-15T07:49:33.526Z,13.20
2023-05-15T07:52:04.055Z,13.40
2023-05-15T07:54:33.859Z,13.50
2023-05-15T07:57:01.339Z,13.50
2023-05-15T07:59:30.974Z,13.70
2023-05-15T08:02:00.425Z,13.80
2023-05-15T08:04:27.257Z,13.90
2023-05-15T08:06:56.759Z,13.90
2023-05-15T08:09:23.512Z,14.00
2023-05-15T08:11:50.353Z,14.40
2023-05-15T08:14:17.145Z,14.60
2023-05-15T08:16:43.989Z,14.70
2023-05-15T08:19:12.961Z,14.90
2023-05-15T08:21:40.995Z,14.90
2023-05-15T08:24:07.875Z,14.80
2023-05-15T08:26:34.728Z,14.70
2023-05-15T08:29:01.721Z,14.70
2023-05-15T08:31:28.659Z,14.70
2023-05-15T08:33:55.709Z,14.60
2023-05-15T08:36:22.719Z,14.40
2023-05-15T08:38:49.595Z,14.50
2023-05-15T08:41:40.666Z,14.90
2023-05-15T08:44:10.629Z,15.20
2023-05-15T08:46:37.578Z,15.30
2023-05-15T08:49:26.584Z,15.20
2023-05-15T08:51:55.282Z,15.10
2023-05-15T08:54:22.450Z,15.30
2023-05-15T08:56:49.592Z,15.30
2023-05-15T08:59:16.352Z,15.60
2023-05-15T09:01:43.296Z,16.10
2023-05-15T09:04:10.732Z,16.40
2023-05-15T09:06:38.316Z,16.40
2023-05-15T09:09:05.925Z,16.60
2023-05-15T09:11:33.037Z,17.10
2023-05-15T09:14:03.208Z,17.60
2023-05-15T09:16:29.983Z,17.90
2023-05-15T09:18:59.085Z,17.70
2023-05-15T09:21:28.633Z,17.30
2023-05-15T09:24:18.056Z,17.10
2023-05-15T09:26:46.920Z,17.10
2023-05-15T09:29:18.950Z,17.70
2023-05-15T09:31:49.777Z,18.00
2023-05-15T09:34:16.848Z,18.10
2023-05-15T09:36:45.110Z,17.60
2023-05-15T09:39:12.174Z,17.40
2023-05-15T09:41:43.026Z,17.30
2023-05-15T09:44:21.562Z,17.40
2023-05-15T09:46:53.046Z,17.80
2023-05-15T09:49:22.849Z,18.20
2023-05-15T09:51:50.752Z,17.80
2023-05-15T09:54:19.002Z,17.80
2023-05-15T09:56:47.480Z,18.10
2023-05-15T09:59:16.184Z,18.50
2023-05-15T10:01:47.078Z,18.20
2023-05-15T10:04:16.094Z,17.70
2023-05-15T10:06:46.490Z,17.60
2023-05-15T10:09:14.659Z,17.50
2023-05-15T10:11:45.754Z,17.30
2023-05-15T10:14:16.719Z,17.10
2023-05-15T10:16:45.197Z,17.20
2023-05-15T10:19:13.347Z,17.30
2023-05-15T10:21:42.085Z,17.80
2023-05-15T10:24:09.800Z,18.60
2023-05-15T10:26:38.536Z,18.90
2023-05-15T10:29:17.361Z,19.00
2023-05-15T10:31:46.755Z,19.00
2023-05-15T10:34:13.907Z,18.70
2023-05-15T10:36:45.511Z,18.60
2023-05-15T10:39:12.990Z,18.40
2023-05-15T10:41:40.485Z,18.10
2023-05-15T10:44:07.337Z,17.90
2023-05-15T10:46:38.127Z,17.80
2023-05-15T10:49:05.552Z,18.00
2023-05-15T10:51:33.834Z,18.50
2023-05-15T10:54:03.822Z,18.40
2023-05-15T10:56:31.717Z,17.90
2023-05-15T10:59:04.619Z,18.10
2023-05-15T11:01:33.882Z,18.10
2023-05-15T11:04:12.053Z,18.20
2023-05-15T11:06:41.003Z,18.50
2023-05-15T11:09:25.867Z,18.70
2023-05-15T11:11:57.154Z,18.90
2023-05-15T11:14:25.535Z,19.20
2023-05-15T11:16:55.654Z,19.40
2023-05-15T11:19:33.505Z,19.60
2023-05-15T11:22:26.136Z,19.70
2023-05-15T11:25:03.437Z,19.50
2023-05-15T11:27:40.137Z,19.30
2023-05-15T11:30:08.055Z,19.00
2023-05-15T11:32:47.071Z,18.60
2023-05-15T11:35:32.797Z,18.90
2023-05-15T11:38:18.120Z,18.90
2023-05-15T11:41:03.555Z,19.00
2023-05-15T11:43:31.646Z,18.80
2023-05-15T11:46:11.202Z,18.90
2023-05-15T11:48:48.251Z,18.80
2023-05-15T11:51:22.261Z,19.40
2023-05-15T11:53:53.548Z,19.80
2023-05-15T11:56:24.993Z,20.00
2023-05-15T11:58:57.416Z,20.40
2023-05-15T12:01:24.774Z,20.70
2023-05-15T12:03:53.347Z,21.10
2023-05-15T12:06:20.853Z,21.30
2023-05-15T12:08:52.635Z,21.20
2023-05-15T12:11:24.325Z,20.90
2023-05-15T12:13:57.003Z,21.10
2023-05-15T12:16:26.454Z,20.90
2023-05-15T12:18:55.985Z,20.90
2023-05-15T12:21:26.183Z,21.20
2023-05-15T12:24:06.435Z,21.70
2023-05-15T12:26:35.009Z,22.10
2023-05-15T12:29:02.120Z,22.00
2023-05-15T12:31:29.786Z,21.60
2023-05-15T12:33:57.317Z,21.70
2023-05-15T12:36:24.287Z,21.90
2023-05-15T12:38:51.380Z,22.10
2023-05-15T12:41:20.137Z,22.10
2023-05-15T12:43:47.032Z,21.60
2023-05-15T12:46:15.846Z,20.40
2023-05-15T12:48:44.567Z,19.20
2023-05-15T12:51:11.348Z,17.70
2023-05-15T12:53:43.898Z,16.80
2023-05-15T12:56:16.603Z,15.80
2023-05-15T12:58:49.321Z,14.80
2023-05-15T13:01:16.739Z,14.40
2023-05-15T13:03:47.029Z,14.10
2023-05-15T13:06:13.982Z,13.90
2023-05-15T13:08:42.095Z,13.90
2023-05-15T13:11:14.039Z,14.00
2023-05-15T13:13:46.079Z,14.10
2023-05-15T13:16:26.797Z,14.00
2023-05-15T13:18:53.959Z,13.70
2023-05-15T13:21:20.918Z,13.70
2023-05-15T13:23:47.814Z,13.50
2023-05-15T13:26:14.948Z,13.50
2023-05-15T13:28:41.730Z,13.30
2023-05-15T13:31:08.663Z,13.00
2023-05-15T13:33:38.089Z,12.90
2023-05-15T13:38:49.273Z,12.80
2023-05-15T13:41:16.008Z,12.90
2023-05-15T13:43:42.873Z,12.90
2023-05-15T13:46:09.733Z,13.20
2023-05-15T13:48:36.566Z,13.50
2023-05-15T13:51:03.398Z,14.00
2023-05-15T13:53:30.156Z,14.30
2023-05-15T13:55:56.912Z,14.60
2023-05-15T13:58:26.645Z,15.00
2023-05-15T14:00:53.611Z,15.30
2023-05-15T14:03:20.780Z,15.70
2023-05-15T14:05:47.789Z,15.80
2023-05-15T14:08:18.365Z,15.90
2023-05-15T14:10:45.111Z,15.80
2023-05-15T14:13:11.913Z,15.80
2023-05-15T14:15:38.698Z,15.90
2023-05-15T14:18:05.875Z,15.70
2023-05-15T14:20:32.686Z,15.70
2023-05-15T14:22:59.468Z,15.60
2023-05-15T14:25:26.222Z,15.60
2023-05-15T14:27:52.989Z,15.50
2023-05-15T14:30:22.113Z,15.30
2023-05-15T14:32:49.231Z,15.30
2023-05-15T14:35:16.089Z,15.10
2023-05-15T14:37:43.503Z,15.20
2023-05-15T14:40:11.177Z,15.20
2023-05-15T14:42:38.036Z,15.00
2023-05-15T14:45:05.100Z,14.90
2023-05-15T14:47:32.091Z,15.00
2023-05-15T14:49:59.007Z,15.00
2023-05-15T14:52:25.987Z,14.90
2023-05-15T14:55:04.985Z,14.90
2023-05-15T14:57:35.972Z,14.80
2023-05-15T15:00:04.732Z,14.60
2023-05-15T15:02:31.702Z,14.50
2023-05-15T15:04:58.563Z,14.40
2023-05-15T15:07:29.448Z,14.50
2023-05-15T15:09:56.228Z,14.40
2023-05-15T15:12:23.182Z,14.40
2023-05-15T15:14:50.074Z,14.20
2023-05-15T15:17:16.799Z,14.20
2023-05-15T15:19:43.515Z,14.10
2023-05-15T15:22:10.238Z,14.10
2023-05-15T15:24:37.192Z,14.20
2023-05-15T15:27:04.030Z,14.30
2023-05-15T15:29:30.787Z,14.30
2023-05-15T15:31:57.781Z,14.30
2023-05-15T15:34:24.546Z,14.10
2023-05-15T15:36:51.443Z,14.20
2023-05-15T15:39:18.170Z,14.00
2023-05-15T15:41:44.963Z,14.00
2023-05-15T15:44:11.722Z,14.00
2023-05-15T15:46:38.497Z,14.00
2023-05-15T15:49:06.787Z,14.00
2023-05-15T15:51:33.873Z,14.10
2023-05-15T15:54:00.642Z,14.00
2023-05-15T15:56:27.606Z,13.90
2023-05-15T15:58:54.451Z,14.00
2023-05-15T16:01:22.308Z,14.00
2023-05-15T16:03:49.490Z,14.30
2023-05-15T16:06:16.643Z,14.50
2023-05-15T16:08:43.425Z,14.80
2023-05-15T16:11:10.233Z,14.90
2023-05-15T16:13:37.917Z,14.90
2023-05-15T16:16:05.791Z,15.00
2023-05-15T16:18:32.548Z,14.60
2023-05-15T16:20:59.334Z,14.50
2023-05-15T16:23:26.225Z,14.30
2023-05-15T16:25:53.054Z,14.30
2023-05-15T16:28:19.777Z,14.20
2023-05-15T16:30:49.759Z,14.30
2023-05-15T16:33:18.322Z,14.30
2023-05-15T16:35:45.618Z,14.30
2023-05-15T16:38:13.274Z,14.40
2023-05-15T16:40:40.124Z,14.50
2023-05-15T16:43:06.902Z,14.60
2023-05-15T16:45:33.732Z,14.50
2023-05-15T16:48:00.686Z,14.50
2023-05-15T16:50:28.006Z,14.60
2023-05-15T16:52:54.939Z,14.80
2023-05-15T16:55:21.807Z,15.00
2023-05-15T16:57:48.718Z,15.30
2023-05-15T17:00:16.295Z,15.40
2023-05-15T17:02:43.634Z,15.30
2023-05-15T17:05:11.538Z,15.20
2023-05-15T17:07:39.014Z,15.00
2023-05-15T17:10:10.572Z,14.80
2023-05-15T17:12:38.059Z,14.70
2023-05-15T17:15:05.767Z,14.60
2023-05-15T17:17:35.886Z,14.70
2023-05-15T17:20:04.054Z,14.70
2023-05-15T17:22:30.879Z,14.60
2023-05-15T17:24:57.653Z,14.40
2023-05-15T17:27:24.522Z,14.40
2023-05-15T17:29:51.550Z,14.30
2023-05-15T17:32:18.984Z,14.30
2023-05-15T17:34:46.206Z,14.30
2023-05-15T17:37:13.692Z,14.40
2023-05-15T17:39:40.574Z,14.50
2023-05-15T17:42:07.423Z,14.50
2023-05-15T17:44:34.342Z,14.40
2023-05-15T17:47:01.406Z,14.40
2023-05-15T17:49:28.542Z,14.30
2023-05-15T17:51:55.406Z,14.20
2023-05-15T17:54:22.428Z,14.20
2023-05-15T17:56:49.289Z,14.10
2023-05-15T17:59:16.387Z,14.00
2023-05-15T18:01:43.280Z,14.00
2023-05-15T18:04:10.324Z,13.90
2023-05-15T18:06:37.327Z,13.90
2023-05-15T18:09:05.179Z,13.80
2023-05-15T18:11:32.167Z,13.80
2023-05-15T18:13:59.029Z,13.70
2023-05-15T18:16:25.952Z,13.60
2023-05-15T18:18:52.916Z,13.50
2023-05-15T18:21:20.464Z,13.50
2023-05-15T18:23:47.468Z,13.40
2023-05-15T18:26:14.304Z,13.30
2023-05-15T18:28:41.504Z,13.20
2023-05-15T18:31:08.402Z,13.20
2023-05-15T18:33:35.348Z,13.00
2023-05-15T18:36:02.236Z,12.90
2023-05-15T18:38:29.112Z,12.90
2023-05-15T18:40:55.815Z,12.80
2023-05-15T18:43:22.660Z,12.70
2023-05-15T18:45:49.446Z,12.70
2023-05-15T18:48:16.444Z,12.60
2023-05-15T18:50:43.346Z,12.50
2023-05-15T18:53:10.185Z,12.40
2023-05-15T18:55:37.268Z,12.40
2023-05-15T18:58:04.013Z,12.30
2023-05-15T19:03:00.704Z,12.10
2023-05-15T19:05:27.930Z,12.00
2023-05-15T19:07:54.765Z,12.10
2023-05-15T19:10:21.566Z,12.00
2023-05-15T19:12:48.362Z,11.90
2023-05-15T19:15:17.059Z,11.80
2023-05-15T19:17:43.914Z,11.80
2023-05-15T19:20:11.241Z,11.60
2023-05-15T19:22:38.122Z,11.60
2023-05-15T19:25:05.307Z,11.50
2023-05-15T19:27:33.113Z,11.30
2023-05-15T19:29:59.969Z,11.20
2023-05-15T19:32:27.088Z,11.10
2023-05-15T19:34:54.273Z,11.10
2023-05-15T19:37:21.128Z,11.10
2023-05-15T19:39:47.909Z,11.00
2023-05-15T19:42:14.643Z,11.00
2023-05-15T19:44:41.409Z,11.00
2023-05-15T19:47:09.732Z,10.90
2023-05-15T19:49:36.471Z,10.90
2023-05-15T19:52:03.825Z,10.90
2023-05-15T19:54:30.654Z,10.80
2023-05-15T19:56:58.716Z,10.70
2023-05-15T19:59:25.536Z,10.60
2023-05-15T20:01:52.388Z,10.60
2023-05-15T20:04:21.008Z,10.50
2023-05-15T20:06:47.830Z,10.50
2023-05-15T20:09:14.603Z,10.50
2023-05-15T20:11:41.455Z,10.50
2023-05-15T20:14:08.174Z,10.50
2023-05-15T20:16:35.056Z,10.40
2023-05-15T20:19:02.010Z,10.30
2023-05-15T20:21:30.156Z,10.20
2023-05-15T20:23:57.942Z,10.20
2023-05-15T20:26:24.715Z,10.10
2023-05-15T20:28:51.487Z,10.10
2023-05-15T20:31:18.472Z,10.10
2023-05-15T20:33:45.489Z,10.00
2023-05-15T20:36:12.571Z,10.00
2023-05-15T20:38:39.572Z,9.90
2023-05-15T20:41:06.286Z,9.90
2023-05-15T20:43:33.082Z,9.90
2023-05-15T20:45:59.823Z,9.90
2023-05-15T20:48:26.584Z,9.80
2023-05-15T20:50:53.845Z,9.80
2023-05-15T20:53:20.598Z,9.80
2023-05-15T20:55:47.385Z,9.80
2023-05-15T20:58:14.126Z,9.70
2023-05-15T21:00:40.928Z,9.70
2023-05-15T21:03:07.818Z,9.70
2023-05-15T21:05:34.774Z,9.60
2023-05-15T21:08:01.762Z,9.60
2023-05-15T21:10:28.855Z,9.60
2023-05-15T21:12:59.016Z,9.50
2023-05-15T21:15:26.175Z,9.50
2023-05-15T21:17:53.028Z,9.40
2023-05-15T21:20:19.859Z,9.40
2023-05-15T21:22:46.759Z,9.40
2023-05-15T21:25:13.702Z,9.30
2023-05-15T21:27:42.063Z,9.30
2023-05-15T21:30:09.316Z,9.30
2023-05-15T21:32:36.070Z,9.20
2023-05-15T21:35:02.868Z,9.20
2023-05-15T21:37:29.626Z,9.10
2023-05-15T21:39:56.418Z,9.10
2023-05-15T21:42:23.533Z,9.10
2023-05-15T21:44:50.302Z,9.00
2023-05-15T21:47:17.109Z,8.90
2023-05-15T21:49:43.959Z,8.90
2023-05-15T21:52:10.868Z,8.90
2023-05-15T21:54:37.603Z,8.90
2023-05-15T21:57:04.621Z,8.90
2023-05-15T21:59:31.341Z,8.90
2023-05-15T22:01:58.160Z,8.90
2023-05-15T22:04:24.918Z,8.90
2023-05-15T22:06:51.744Z,8.90
2023-05-15T22:09:18.511Z,9.00
2023-05-15T22:11:45.236Z,8.90
2023-05-15T22:14:12.204Z,8.90
2023-05-15T22:16:39.090Z,8.90
2023-05-15T22:19:05.978Z,8.90
2023-05-15T22:21:33.014Z,8.80
2023-05-15T22:24:01.168Z,8.80
2023-05-15T22:26:27.967Z,8.70
2023-05-15T22:28:57.910Z,8.70
2023-05-15T22:31:25.057Z,8.70
2023-05-15T22:33:52.005Z,8.70
2023-05-15T22:36:18.881Z,8.70
2023-05-15T22:38:45.679Z,8.70
2023-05-15T22:41:12.453Z,8.70
2023-05-15T22:43:39.273Z,8.70
2023-05-15T22:46:06.117Z,8.70
2023-05-15T22:48:33.022Z,8.70
2023-05-15T22:50:59.888Z,8.70
2023-05-15T22:53:26.888Z,8.60
2023-05-15T22:55:53.620Z,8.60
2023-05-15T22:58:20.590Z,8.60
2023-05-15T23:00:47.376Z,8.50
2023-05-15T23:03:17.335Z,8.50
2023-05-15T23:05:45.400Z,8.50
2023-05-15T23:08:12.261Z,8.50
2023-05-15T23:10:39.039Z,8.40
2023-05-15T23:13:05.885Z,8.30
2023-05-15T23:15:32.732Z,8.20
2023-05-15T23:18:01.728Z,8.20
2023-05-15T23:20:28.881Z,8.20
2023-05-15T23:22:56.219Z,8.20
2023-05-15T23:25:23.074Z,8.10
2023-05-15T23:27:49.983Z,8.10
2023-05-15T23:30:16.923Z,8.10
2023-05-15T23:32:44.031Z,8.10
2023-05-15T23:35:11.095Z,8.10
2023-05-15T23:37:38.155Z,8.10
2023-05-15T23:40:06.081Z,8.10
2023-05-15T23:42:33.022Z,8.10
2023-05-15T23:44:59.974Z,8.10
2023-05-15T23:47:26.824Z,8.10
2023-05-15T23:49:53.650Z,8.10
2023-05-15T23:52:20.457Z,8.10
2023-05-15T23:54:47.377Z,8.10
2023-05-15T23:57:14.225Z,8.00
2023-05-15T23:59:41.176Z,8.00
